sensor_id;sensor_type;location;lat;lon;timestamp;pressure;altitude;pressure_sealevel;temperature;humidity
71107;BME280;58763;47.982;11.516;2023-05-01T00:01:17;93998.78;;;9.65;64.37
71107;BME280;58763;47.982;11.516;2023-05-01T00:03:43;93998.78;;;9.65;64.41
71107;BME280;58763;47.982;11.516;2023-05-01T00:06:08;93995.81;;;9.66;64.56
71107;BME280;58763;47.982;11.516;2023-05-01T00:08:34;93989.63;;;9.66;64.39
71107;BME280;58763;47.982;11.516;2023-05-01T00:11:03;93988.50;;;9.67;64.64
71107;BME280;58763;47.982;11.516;2023-05-01T00:13:30;93995.84;;;9.61;64.42
71107;BME280;58763;47.982;11.516;2023-05-01T00:15:55;93984.06;;;9.52;64.69
71107;BME280;58763;47.982;11.516;2023-05-01T00:18:21;93986.75;;;9.52;64.85
71107;BME280;58763;47.982;11.516;2023-05-01T00:20:46;93982.69;;;9.55;64.76
71107;BME280;58763;47.982;11.516;2023-05-01T00:23:12;93986.19;;;9.55;64.63
71107;BME280;58763;47.982;11.516;2023-05-01T00:25:38;93978.63;;;9.57;64.66
71107;BME280;58763;47.982;11.516;2023-05-01T00:28:03;93982.09;;;9.63;64.52
71107;BME280;58763;47.982;11.516;2023-05-01T00:30:33;93977.75;;;9.62;64.75
71107;BME280;58763;47.982;11.516;2023-05-01T00:32:59;93971.56;;;9.61;64.67
71107;BME280;58763;47.982;11.516;2023-05-01T00:35:26;93975.91;;;9.57;64.64
71107;BME280;58763;47.982;11.516;2023-05-01T00:37:51;93965.97;;;9.53;64.47
71107;BME280;58763;47.982;11.516;2023-05-01T00:40:17;93967.38;;;9.45;64.79
71107;BME280;58763;47.982;11.516;2023-05-01T00:42:42;93971.03;;;9.31;65.46
71107;BME280;58763;47.982;11.516;2023-05-01T00:45:08;93976.22;;;9.22;65.84
71107;BME280;58763;47.982;11.516;2023-05-01T00:47:37;93976.06;;;9.09;65.69
71107;BME280;58763;47.982;11.516;2023-05-01T00:50:03;93968.09;;;8.93;66.66
71107;BME280;58763;47.982;11.516;2023-05-01T00:52:30;93971.31;;;8.95;66.71
71107;BME280;58763;47.982;11.516;2023-05-01T00:54:56;93966.94;;;8.99;66.84
71107;BME280;58763;47.982;11.516;2023-05-01T00:57:22;93961.06;;;8.92;66.84
71107;BME280;58763;47.982;11.516;2023-05-01T00:59:47;93960.53;;;8.90;66.87
71107;BME280;58763;47.982;11.516;2023-05-01T01:02:14;93960.03;;;8.88;66.98
71107;BME280;58763;47.982;11.516;2023-05-01T01:04:45;93955.19;;;8.85;67.43
71107;BME280;58763;47.982;11.516;2023-05-01T01:07:13;93945.97;;;8.91;66.96
71107;BME280;58763;47.982;11.516;2023-05-01T01:12:31;93943.84;;;8.88;67.61
71107;BME280;58763;47.982;11.516;2023-05-01T01:15:20;93942.22;;;8.87;67.67
71107;BME280;58763;47.982;11.516;2023-05-01T01:17:58;93942.72;;;8.94;67.31
71107;BME280;58763;47.982;11.516;2023-05-01T01:20:43;93933.25;;;8.97;67.63
71107;BME280;58763;47.982;11.516;2023-05-01T01:23:23;93934.63;;;8.94;67.29
71107;BME280;58763;47.982;11.516;2023-05-01T01:26:26;93936.81;;;8.92;67.31
71107;BME280;58763;47.982;11.516;2023-05-01T01:34:50;93914.94;;;8.60;68.64
71107;BME280;58763;47.982;11.516;2023-05-01T01:37:22;93915.44;;;8.62;68.44
71107;BME280;58763;47.982;11.516;2023-05-01T01:39:52;93918.41;;;8.66;68.30
71107;BME280;58763;47.982;11.516;2023-05-01T01:42:23;93929.25;;;8.56;68.57
71107;BME280;58763;47.982;11.516;2023-05-01T01:44:53;93921.97;;;8.56;68.42
71107;BME280;58763;47.982;11.516;2023-05-01T01:47:21;93920.03;;;8.62;68.07
71107;BME280;58763;47.982;11.516;2023-05-01T01:49:51;93918.16;;;8.57;67.88
71107;BME280;58763;47.982;11.516;2023-05-01T01:52:19;93918.47;;;8.56;67.94
71107;BME280;58763;47.982;11.516;2023-05-01T01:54:50;93920.38;;;8.50;67.69
71107;BME280;58763;47.982;11.516;2023-05-01T01:57:18;93912.31;;;8.45;67.67
71107;BME280;58763;47.982;11.516;2023-05-01T01:59:45;93916.03;;;8.54;67.70
71107;BME280;58763;47.982;11.516;2023-05-01T02:02:12;93906.44;;;8.38;67.89
71107;BME280;58763;47.982;11.516;2023-05-01T02:04:39;93901.09;;;8.33;67.95
71107;BME280;58763;47.982;11.516;2023-05-01T02:07:07;93901.59;;;8.40;67.99
71107;BME280;58763;47.982;11.516;2023-05-01T02:09:35;93905.88;;;8.41;68.25
71107;BME280;58763;47.982;11.516;2023-05-01T02:12:04;93908.56;;;8.41;68.02
71107;BME280;58763;47.982;11.516;2023-05-01T02:14:32;93906.47;;;8.33;68.57
71107;BME280;58763;47.982;11.516;2023-05-01T02:16:58;93899.75;;;8.30;68.53
71107;BME280;58763;47.982;11.516;2023-05-01T02:19:24;93903.78;;;8.33;68.27
71107;BME280;58763;47.982;11.516;2023-05-01T02:21:52;93893.56;;;8.30;68.96
71107;BME280;58763;47.982;11.516;2023-05-01T02:24:20;93890.34;;;8.28;68.76
71107;BME280;58763;47.982;11.516;2023-05-01T02:26:55;93881.75;;;8.26;69.00
71107;BME280;58763;47.982;11.516;2023-05-01T02:29:23;93883.84;;;8.24;69.24
71107;BME280;58763;47.982;11.516;2023-05-01T02:31:49;93885.47;;;8.30;69.01
71107;BME280;58763;47.982;11.516;2023-05-01T02:34:15;93882.75;;;8.35;68.23
71107;BME280;58763;47.982;11.516;2023-05-01T02:36:40;93889.19;;;8.39;67.75
71107;BME280;58763;47.982;11.516;2023-05-01T02:39:06;93888.16;;;8.30;67.96
71107;BME280;58763;47.982;11.516;2023-05-01T02:41:34;93886.88;;;8.12;68.61
71107;BME280;58763;47.982;11.516;2023-05-01T02:44:00;93886.94;;;8.02;69.30
71107;BME280;58763;47.982;11.516;2023-05-01T02:46:29;93888.00;;;8.01;69.01
71107;BME280;58763;47.982;11.516;2023-05-01T02:48:56;93873.53;;;7.87;69.54
71107;BME280;58763;47.982;11.516;2023-05-01T02:51:25;93880.19;;;8.05;68.85
71107;BME280;58763;47.982;11.516;2023-05-01T02:53:52;93873.75;;;8.01;69.17
71107;BME280;58763;47.982;11.516;2023-05-01T02:56:18;93873.81;;;7.86;69.33
71107;BME280;58763;47.982;11.516;2023-05-01T02:58:44;93870.09;;;7.82;69.43
71107;BME280;58763;47.982;11.516;2023-05-01T03:01:09;93870.63;;;7.74;69.88
71107;BME280;58763;47.982;11.516;2023-05-01T03:03:35;93861.75;;;7.73;69.73
71107;BME280;58763;47.982;11.516;2023-05-01T03:06:01;93871.69;;;7.83;69.66
71107;BME280;58763;47.982;11.516;2023-05-01T03:08:27;93861.38;;;8.00;69.44
71107;BME280;58763;47.982;11.516;2023-05-01T03:10:53;93864.41;;;7.83;69.58
71107;BME280;58763;47.982;11.516;2023-05-01T03:13:18;93864.72;;;7.77;69.63
71107;BME280;58763;47.982;11.516;2023-05-01T03:15:43;93870.94;;;7.67;69.93
71107;BME280;58763;47.982;11.516;2023-05-01T03:18:09;93863.69;;;7.68;69.96
71107;BME280;58763;47.982;11.516;2023-05-01T03:20:34;93869.59;;;7.64;70.12
71107;BME280;58763;47.982;11.516;2023-05-01T03:23:00;93879.81;;;7.68;70.20
71107;BME280;58763;47.982;11.516;2023-05-01T03:25:25;93866.09;;;7.64;70.53
71107;BME280;58763;47.982;11.516;2023-05-01T03:27:51;93866.69;;;7.56;70.88
71107;BME280;58763;47.982;11.516;2023-05-01T03:30:17;93859.41;;;7.51;70.96
71107;BME280;58763;47.982;11.516;2023-05-01T03:32:42;93857.00;;;7.50;71.65
71107;BME280;58763;47.982;11.516;2023-05-01T03:35:08;93857.81;;;7.50;71.30
71107;BME280;58763;47.982;11.516;2023-05-01T03:37:34;93859.41;;;7.51;71.53
71107;BME280;58763;47.982;11.516;2023-05-01T03:40:00;93862.91;;;7.52;71.79
71107;BME280;58763;47.982;11.516;2023-05-01T03:42:25;93857.53;;;7.52;71.79
71107;BME280;58763;47.982;11.516;2023-05-01T03:44:51;93858.34;;;7.52;71.76
71107;BME280;58763;47.982;11.516;2023-05-01T03:47:17;93862.59;;;7.63;71.66
71107;BME280;58763;47.982;11.516;2023-05-01T03:49:43;93861.25;;;7.66;71.60
71107;BME280;58763;47.982;11.516;2023-05-01T03:52:10;93856.16;;;7.59;71.76
71107;BME280;58763;47.982;11.516;2023-05-01T03:54:36;93847.06;;;7.50;71.70
71107;BME280;58763;47.982;11.516;2023-05-01T03:57:03;93846.25;;;7.50;72.35
71107;BME280;58763;47.982;11.516;2023-05-01T03:59:28;93844.88;;;7.52;72.22
71107;BME280;58763;47.982;11.516;2023-05-01T04:01:53;93847.03;;;7.55;71.56
71107;BME280;58763;47.982;11.516;2023-05-01T04:04:19;93845.94;;;7.51;71.97
71107;BME280;58763;47.982;11.516;2023-05-01T04:06:44;93843.25;;;7.51;71.99
71107;BME280;58763;47.982;11.516;2023-05-01T04:09:10;93844.59;;;7.54;71.82
71107;BME280;58763;47.982;11.516;2023-05-01T04:11:35;93840.81;;;7.60;71.58
71107;BME280;58763;47.982;11.516;2023-05-01T04:14:00;93844.59;;;7.59;71.61
71107;BME280;58763;47.982;11.516;2023-05-01T04:16:26;93844.59;;;7.59;71.64
71107;BME280;58763;47.982;11.516;2023-05-01T04:18:51;93834.41;;;7.56;72.24
71107;BME280;58763;47.982;11.516;2023-05-01T04:21:17;93836.53;;;7.54;71.99
71107;BME280;58763;47.982;11.516;2023-05-01T04:23:43;93841.38;;;7.57;72.21
71107;BME280;58763;47.982;11.516;2023-05-01T04:26:08;93840.84;;;7.50;72.75
71107;BME280;58763;47.982;11.516;2023-05-01T04:28:34;93839.53;;;7.42;73.12
71107;BME280;58763;47.982;11.516;2023-05-01T04:30:59;93836.00;;;7.47;73.40
71107;BME280;58763;47.982;11.516;2023-05-01T04:33:25;93833.59;;;7.50;72.97
71107;BME280;58763;47.982;11.516;2023-05-01T04:35:52;93829.56;;;7.53;73.08
71107;BME280;58763;47.982;11.516;2023-05-01T04:38:18;93835.19;;;7.56;73.21
71107;BME280;58763;47.982;11.516;2023-05-01T04:40:44;93830.31;;;7.63;73.25
71107;BME280;58763;47.982;11.516;2023-05-01T04:43:09;93835.97;;;7.67;72.92
71107;BME280;58763;47.982;11.516;2023-05-01T04:45:37;93834.09;;;7.68;72.81
71107;BME280;58763;47.982;11.516;2023-05-01T04:48:02;93832.41;;;7.77;73.00
71107;BME280;58763;47.982;11.516;2023-05-01T04:50:27;93836.19;;;7.76;73.42
71107;BME280;58763;47.982;11.516;2023-05-01T04:52:53;93831.06;;;7.79;73.04
71107;BME280;58763;47.982;11.516;2023-05-01T04:55:18;93837.28;;;7.75;74.10
71107;BME280;58763;47.982;11.516;2023-05-01T04:57:44;93836.72;;;7.73;73.78
71107;BME280;58763;47.982;11.516;2023-05-01T05:00:10;93837.22;;;7.85;73.53
71107;BME280;58763;47.982;11.516;2023-05-01T05:02:36;93844.28;;;7.71;74.71
71107;BME280;58763;47.982;11.516;2023-05-01T05:05:01;93852.00;;;7.87;74.57
71107;BME280;58763;47.982;11.516;2023-05-01T05:07:27;93844.44;;;7.89;75.10
71107;BME280;58763;47.982;11.516;2023-05-01T05:09:52;93853.88;;;7.92;75.73
71107;BME280;58763;47.982;11.516;2023-05-01T05:12:18;93851.13;;;8.02;75.34
71107;BME280;58763;47.982;11.516;2023-05-01T05:14:43;93851.69;;;7.94;75.38
71107;BME280;58763;47.982;11.516;2023-05-01T05:17:09;93854.38;;;7.99;75.64
71107;BME280;58763;47.982;11.516;2023-05-01T05:19:34;93851.34;;;8.10;75.77
71107;BME280;58763;47.982;11.516;2023-05-01T05:22:03;93856.97;;;8.19;75.63
71107;BME280;58763;47.982;11.516;2023-05-01T05:24:28;93856.47;;;8.12;75.77
71107;BME280;58763;47.982;11.516;2023-05-01T05:26:54;93857.53;;;8.11;76.04
71107;BME280;58763;47.982;11.516;2023-05-01T05:29:20;93856.41;;;8.17;76.24
71107;BME280;58763;47.982;11.516;2023-05-01T05:31:45;93860.97;;;8.21;76.97
71107;BME280;58763;47.982;11.516;2023-05-01T05:34:11;93861.03;;;8.16;76.63
71107;BME280;58763;47.982;11.516;2023-05-01T05:36:37;93859.91;;;8.17;77.20
71107;BME280;58763;47.982;11.516;2023-05-01T05:39:02;93867.19;;;8.17;77.70
71107;BME280;58763;47.982;11.516;2023-05-01T05:41:28;93862.06;;;8.20;77.85
71107;BME280;58763;47.982;11.516;2023-05-01T05:43:53;93867.44;;;8.20;78.52
71107;BME280;58763;47.982;11.516;2023-05-01T05:46:19;93861.25;;;8.20;78.93
71107;BME280;58763;47.982;11.516;2023-05-01T05:48:45;93870.97;;;8.26;78.93
71107;BME280;58763;47.982;11.516;2023-05-01T05:51:10;93866.06;;;8.33;78.89
71107;BME280;58763;47.982;11.516;2023-05-01T05:53:36;93865.81;;;8.29;79.47
71107;BME280;58763;47.982;11.516;2023-05-01T05:56:01;93863.66;;;8.26;79.81
71107;BME280;58763;47.982;11.516;2023-05-01T05:58:27;93869.84;;;8.32;79.59
71107;BME280;58763;47.982;11.516;2023-05-01T06:00:52;93870.88;;;8.36;79.47
71107;BME280;58763;47.982;11.516;2023-05-01T06:03:20;93875.72;;;8.39;79.33
71107;BME280;58763;47.982;11.516;2023-05-01T06:05:45;93877.91;;;8.37;79.48
71107;BME280;58763;47.982;11.516;2023-05-01T06:08:11;93873.59;;;8.31;79.68
71107;BME280;58763;47.982;11.516;2023-05-01T06:10:39;93873.59;;;8.31;80.10
71107;BME280;58763;47.982;11.516;2023-05-01T06:13:05;93874.69;;;8.30;80.01
71107;BME280;58763;47.982;11.516;2023-05-01T06:15:35;93876.28;;;8.36;79.74
71107;BME280;58763;47.982;11.516;2023-05-01T06:18:01;93879.47;;;8.38;80.20
71107;BME280;58763;47.982;11.516;2023-05-01T06:20:27;93880.06;;;8.35;80.04
71107;BME280;58763;47.982;11.516;2023-05-01T06:22:52;93868.75;;;8.33;79.75
71107;BME280;58763;47.982;11.516;2023-05-01T06:25:17;93868.72;;;8.38;80.76
71107;BME280;58763;47.982;11.516;2023-05-01T06:27:43;93872.50;;;8.37;80.68
71107;BME280;58763;47.982;11.516;2023-05-01T06:30:09;93873.50;;;8.51;80.10
71107;BME280;58763;47.982;11.516;2023-05-01T06:32:35;93867.00;;;8.52;80.14
71107;BME280;58763;47.982;11.516;2023-05-01T06:35:01;93875.28;;;8.66;80.64
71107;BME280;58763;47.982;11.516;2023-05-01T06:37:26;93867.38;;;8.74;80.65
71107;BME280;58763;47.982;11.516;2023-05-01T06:39:52;93867.91;;;8.76;80.66
71107;BME280;58763;47.982;11.516;2023-05-01T06:42:17;93864.88;;;8.83;80.59
71107;BME280;58763;47.982;11.516;2023-05-01T06:44:42;93862.97;;;8.88;80.46
71107;BME280;58763;47.982;11.516;2023-05-01T06:47:08;93876.13;;;8.95;80.21
71107;BME280;58763;47.982;11.516;2023-05-01T06:49:36;93876.34;;;8.98;79.98
71107;BME280;58763;47.982;11.516;2023-05-01T06:52:01;93877.66;;;9.01;80.44
71107;BME280;58763;47.982;11.516;2023-05-01T06:54:27;93873.56;;;9.09;79.88
71107;BME280;58763;47.982;11.516;2023-05-01T06:56:52;93883.22;;;9.15;80.04
71107;BME280;58763;47.982;11.516;2023-05-01T06:59:18;93877.97;;;9.28;80.25
71107;BME280;58763;47.982;11.516;2023-05-01T07:01:43;93880.81;;;9.42;77.77
71107;BME280;58763;47.982;11.516;2023-05-01T07:04:09;93884.19;;;9.52;77.11
71107;BME280;58763;47.982;11.516;2023-05-01T07:06:35;93887.81;;;9.66;78.18
71107;BME280;58763;47.982;11.516;2023-05-01T07:09:02;93885.88;;;9.72;76.70
71107;BME280;58763;47.982;11.516;2023-05-01T07:11:27;93877.66;;;9.82;76.91
71107;BME280;58763;47.982;11.516;2023-05-01T07:13:53;93883.53;;;9.89;74.06
71107;BME280;58763;47.982;11.516;2023-05-01T07:16:18;93876.66;;;9.97;72.43
71107;BME280;58763;47.982;11.516;2023-05-01T07:18:44;93874.50;;;9.99;71.72
71107;BME280;58763;47.982;11.516;2023-05-01T07:21:10;93878.59;;;9.96;72.30
71107;BME280;58763;47.982;11.516;2023-05-01T07:23:36;93881.28;;;9.96;73.67
71107;BME280;58763;47.982;11.516;2023-05-01T07:26:02;93882.38;;;9.95;73.63
71107;BME280;58763;47.982;11.516;2023-05-01T07:28:28;93878.81;;;9.76;73.83
71107;BME280;58763;47.982;11.516;2023-05-01T07:30:54;93886.13;;;9.94;73.91
71107;BME280;58763;47.982;11.516;2023-05-01T07:33:20;93884.44;;;10.03;74.00
71107;BME280;58763;47.982;11.516;2023-05-01T07:35:45;93888.78;;;9.99;73.64
71107;BME280;58763;47.982;11.516;2023-05-01T07:38:11;93878.63;;;9.91;75.21
71107;BME280;58763;47.982;11.516;2023-05-01T07:40:36;93881.34;;;9.91;75.50
71107;BME280;58763;47.982;11.516;2023-05-01T07:43:03;93883.22;;;9.91;76.87
71107;BME280;58763;47.982;11.516;2023-05-01T07:45:29;93893.06;;;9.82;76.36
71107;BME280;58763;47.982;11.516;2023-05-01T07:47:54;93892.25;;;10.05;76.04
71107;BME280;58763;47.982;11.516;2023-05-01T07:50:22;93893.06;;;10.05;76.45
71107;BME280;58763;47.982;11.516;2023-05-01T07:52:47;93897.03;;;10.13;76.95
71107;BME280;58763;47.982;11.516;2023-05-01T07:55:13;93899.09;;;10.21;76.60
71107;BME280;58763;47.982;11.516;2023-05-01T07:57:38;93898.50;;;10.00;78.03
71107;BME280;58763;47.982;11.516;2023-05-01T08:00:04;93902.53;;;10.03;78.40
71107;BME280;58763;47.982;11.516;2023-05-01T08:02:33;93903.63;;;10.02;78.62
71107;BME280;58763;47.982;11.516;2023-05-01T08:04:58;93905.13;;;10.13;78.76
71107;BME280;58763;47.982;11.516;2023-05-01T08:07:24;93907.88;;;10.08;78.90
71107;BME280;58763;47.982;11.516;2023-05-01T08:09:49;93903.63;;;10.02;78.90
71107;BME280;58763;47.982;11.516;2023-05-01T08:12:15;93903.63;;;10.02;78.85
71107;BME280;58763;47.982;11.516;2023-05-01T08:14:40;93908.00;;;9.98;79.67
71107;BME280;58763;47.982;11.516;2023-05-01T08:17:05;93911.97;;;10.05;79.47
71107;BME280;58763;47.982;11.516;2023-05-01T08:19:32;93910.19;;;10.19;79.48
71107;BME280;58763;47.982;11.516;2023-05-01T08:21:57;93920.75;;;10.39;79.24
71107;BME280;58763;47.982;11.516;2023-05-01T08:24:22;93917.75;;;10.60;78.00
71107;BME280;58763;47.982;11.516;2023-05-01T08:26:48;93917.97;;;10.63;77.68
71107;BME280;58763;47.982;11.516;2023-05-01T08:29:14;93925.16;;;10.73;77.55
71107;BME280;58763;47.982;11.516;2023-05-01T08:31:39;93922.28;;;10.83;77.13
71107;BME280;58763;47.982;11.516;2023-05-01T08:34:07;93930.63;;;10.86;77.09
71107;BME280;58763;47.982;11.516;2023-05-01T08:36:32;93930.00;;;10.76;77.73
71107;BME280;58763;47.982;11.516;2023-05-01T08:38:58;93933.53;;;10.90;78.41
71107;BME280;58763;47.982;11.516;2023-05-01T08:41:24;93921.63;;;10.91;77.95
71107;BME280;58763;47.982;11.516;2023-05-01T08:43:50;93933.19;;;10.78;78.90
71107;BME280;58763;47.982;11.516;2023-05-01T08:46:30;93932.53;;;10.86;77.92
71107;BME280;58763;47.982;11.516;2023-05-01T08:48:58;93929.38;;;10.97;77.56
71107;BME280;58763;47.982;11.516;2023-05-01T08:51:25;93933.47;;;10.95;77.43
71107;BME280;58763;47.982;11.516;2023-05-01T08:53:52;93930.31;;;11.06;77.55
71107;BME280;58763;47.982;11.516;2023-05-01T08:56:20;93935.72;;;11.06;77.66
71107;BME280;58763;47.982;11.516;2023-05-01T08:58:48;93941.06;;;10.93;78.84
71107;BME280;58763;47.982;11.516;2023-05-01T09:01:15;93933.19;;;10.78;79.67
71107;BME280;58763;47.982;11.516;2023-05-01T09:03:41;93940.25;;;10.92;79.59
71107;BME280;58763;47.982;11.516;2023-05-01T09:06:09;93940.44;;;11.01;79.76
71107;BME280;58763;47.982;11.516;2023-05-01T09:08:35;93934.56;;;10.94;80.28
71107;BME280;58763;47.982;11.516;2023-05-01T09:11:01;93944.16;;;11.05;80.53
71107;BME280;58763;47.982;11.516;2023-05-01T09:13:27;93939.00;;;11.22;80.00
71107;BME280;58763;47.982;11.516;2023-05-01T09:15:53;93945.63;;;11.30;79.80
71107;BME280;58763;47.982;11.516;2023-05-01T09:18:18;93939.63;;;11.33;79.49
71107;BME280;58763;47.982;11.516;2023-05-01T09:20:44;93944.25;;;11.32;78.65
71107;BME280;58763;47.982;11.516;2023-05-01T09:23:10;93957.84;;;11.27;79.16
71107;BME280;58763;47.982;11.516;2023-05-01T09:25:35;93951.34;;;11.28;79.40
71107;BME280;58763;47.982;11.516;2023-05-01T09:28:03;93951.78;;;11.35;78.98
71107;BME280;58763;47.982;11.516;2023-05-01T09:35:30;93939.81;;;11.04;80.82
71107;BME280;58763;47.982;11.516;2023-05-01T09:37:57;93950.75;;;10.99;81.54
71107;BME280;58763;47.982;11.516;2023-05-01T09:40:26;93946.34;;;11.03;80.95
71107;BME280;58763;47.982;11.516;2023-05-01T09:42:53;93949.84;;;11.03;81.25
71107;BME280;58763;47.982;11.516;2023-05-01T09:45:20;93949.19;;;11.11;80.60
71107;BME280;58763;47.982;11.516;2023-05-01T09:47:47;93950.84;;;11.26;80.84
71107;BME280;58763;47.982;11.516;2023-05-01T09:50:29;93954.63;;;11.25;80.25
71107;BME280;58763;47.982;11.516;2023-05-01T09:52:55;93955.16;;;11.08;80.74
71107;BME280;58763;47.982;11.516;2023-05-01T09:55:20;93958.63;;;11.14;80.17
71107;BME280;58763;47.982;11.516;2023-05-01T09:57:47;93960.22;;;11.15;81.05
71107;BME280;58763;47.982;11.516;2023-05-01T10:00:15;93961.25;;;11.19;81.05
71107;BME280;58763;47.982;11.516;2023-05-01T10:02:44;93956.66;;;11.20;80.44
71107;BME280;58763;47.982;11.516;2023-05-01T10:05:10;93959.47;;;11.28;80.77
71107;BME280;58763;47.982;11.516;2023-05-01T10:07:36;93953.06;;;11.24;81.50
71107;BME280;58763;47.982;11.516;2023-05-01T10:10:17;93953.31;;;11.23;81.37
71107;BME280;58763;47.982;11.516;2023-05-01T10:12:43;93954.22;;;11.18;82.34
71107;BME280;58763;47.982;11.516;2023-05-01T10:15:09;93955.75;;;11.24;81.66
71107;BME280;58763;47.982;11.516;2023-05-01T10:17:35;93952.69;;;11.12;82.12
71107;BME280;58763;47.982;11.516;2023-05-01T10:20:00;93951.69;;;11.08;82.87
71107;BME280;58763;47.982;11.516;2023-05-01T10:22:25;93956.59;;;11.06;83.24
71107;BME280;58763;47.982;11.516;2023-05-01T10:24:52;93953.28;;;11.09;83.26
71107;BME280;58763;47.982;11.516;2023-05-01T10:27:18;93952.69;;;11.12;83.35
71107;BME280;58763;47.982;11.516;2023-05-01T10:29:47;93954.91;;;11.10;83.37
71107;BME280;58763;47.982;11.516;2023-05-01T10:32:13;93955.97;;;11.09;84.02
71107;BME280;58763;47.982;11.516;2023-05-01T10:34:44;93945.59;;;11.16;83.87
71107;BME280;58763;47.982;11.516;2023-05-01T10:37:19;93950.00;;;11.12;84.14
71107;BME280;58763;47.982;11.516;2023-05-01T10:39:47;93947.84;;;11.09;85.64
71107;BME280;58763;47.982;11.516;2023-05-01T10:42:13;93952.19;;;11.10;84.45
71107;BME280;58763;47.982;11.516;2023-05-01T10:44:40;93947.78;;;11.14;84.90
71107;BME280;58763;47.982;11.516;2023-05-01T10:50:11;93951.59;;;11.32;85.94
71107;BME280;58763;47.982;11.516;2023-05-01T10:55:41;93948.19;;;11.40;85.04
71107;BME280;58763;47.982;11.516;2023-05-01T10:58:08;93946.28;;;11.40;85.97
71107;BME280;58763;47.982;11.516;2023-05-01T11:00:33;93940.91;;;11.54;85.99
71107;BME280;58763;47.982;11.516;2023-05-01T11:08:34;93933.13;;;11.66;85.58
71107;BME280;58763;47.982;11.516;2023-05-01T11:14:00;93937.69;;;11.52;85.43
71107;BME280;58763;47.982;11.516;2023-05-01T11:18:59;93933.25;;;11.42;86.40
71107;BME280;58763;47.982;11.516;2023-05-01T11:21:32;93924.34;;;11.55;86.09
71107;BME280;58763;47.982;11.516;2023-05-01T11:24:08;93928.78;;;11.65;85.89
71107;BME280;58763;47.982;11.516;2023-05-01T11:26:41;93935.47;;;11.72;85.67
71107;BME280;58763;47.982;11.516;2023-05-01T11:29:08;93935.78;;;11.85;85.33
71107;BME280;58763;47.982;11.516;2023-05-01T11:31:38;93941.22;;;11.85;83.72
71107;BME280;58763;47.982;11.516;2023-05-01T11:34:03;93933.91;;;11.85;83.36
71107;BME280;58763;47.982;11.516;2023-05-01T11:36:51;93932.19;;;12.03;83.98
71107;BME280;58763;47.982;11.516;2023-05-01T11:39:17;93923.88;;;12.13;82.47
71107;BME280;58763;47.982;11.516;2023-05-01T11:41:43;93924.19;;;12.25;82.06
71107;BME280;58763;47.982;11.516;2023-05-01T11:44:14;93914.13;;;12.25;81.92
71107;BME280;58763;47.982;11.516;2023-05-01T11:46:39;93932.50;;;12.28;80.71
71107;BME280;58763;47.982;11.516;2023-05-01T11:49:05;93928.38;;;12.44;80.88
71107;BME280;58763;47.982;11.516;2023-05-01T11:51:30;93923.94;;;12.62;81.74
71107;BME280;58763;47.982;11.516;2023-05-01T11:54:03;93915.28;;;12.74;80.10
71107;BME280;58763;47.982;11.516;2023-05-01T11:56:29;93923.06;;;12.89;79.85
71107;BME280;58763;47.982;11.516;2023-05-01T11:58:57;93919.03;;;12.86;78.00
71107;BME280;58763;47.982;11.516;2023-05-01T12:01:36;93919.38;;;12.85;77.26
71107;BME280;58763;47.982;11.516;2023-05-01T12:04:02;93919.47;;;12.80;78.26
71107;BME280;58763;47.982;11.516;2023-05-01T12:06:43;93921.47;;;12.88;76.68
71107;BME280;58763;47.982;11.516;2023-05-01T12:09:29;93918.56;;;12.84;77.83
71107;BME280;58763;47.982;11.516;2023-05-01T12:11:56;93919.00;;;13.00;77.88
71107;BME280;58763;47.982;11.516;2023-05-01T12:14:22;93922.00;;;13.12;77.47
71107;BME280;58763;47.982;11.516;2023-05-01T12:16:48;93919.81;;;13.00;75.05
71107;BME280;58763;47.982;11.516;2023-05-01T12:19:14;93920.59;;;13.14;75.01
71107;BME280;58763;47.982;11.516;2023-05-01T12:21:40;93925.53;;;13.12;74.57
71107;BME280;58763;47.982;11.516;2023-05-01T12:24:13;93919.84;;;12.87;75.10
71107;BME280;58763;47.982;11.516;2023-05-01T12:26:40;93921.63;;;12.56;75.91
71107;BME280;58763;47.982;11.516;2023-05-01T12:29:06;93923.31;;;12.79;74.35
71107;BME280;58763;47.982;11.516;2023-05-01T12:31:34;93916.19;;;12.69;74.85
71107;BME280;58763;47.982;11.516;2023-05-01T12:34:06;93926.31;;;12.77;74.61
71107;BME280;58763;47.982;11.516;2023-05-01T12:36:35;93930.59;;;13.05;76.58
71107;BME280;58763;47.982;11.516;2023-05-01T12:39:03;93922.38;;;13.19;74.93
71107;BME280;58763;47.982;11.516;2023-05-01T12:41:43;93925.75;;;13.16;72.84
71107;BME280;58763;47.982;11.516;2023-05-01T12:47:00;93933.09;;;13.02;72.80
71107;BME280;58763;47.982;11.516;2023-05-01T12:49:27;93930.97;;;12.99;73.25
71107;BME280;58763;47.982;11.516;2023-05-01T12:51:59;93932.50;;;12.91;72.33
71107;BME280;58763;47.982;11.516;2023-05-01T12:54:35;93933.78;;;13.07;72.78
71107;BME280;58763;47.982;11.516;2023-05-01T12:57:12;93926.84;;;13.01;72.23
71107;BME280;58763;47.982;11.516;2023-05-01T12:59:44;93925.00;;;13.24;72.75
71107;BME280;58763;47.982;11.516;2023-05-01T13:02:11;93931.56;;;13.09;72.24
71107;BME280;58763;47.982;11.516;2023-05-01T13:04:39;93929.56;;;13.01;73.26
71107;BME280;58763;47.982;11.516;2023-05-01T13:07:14;93920.81;;;13.18;73.46
71107;BME280;58763;47.982;11.516;2023-05-01T13:09:50;93922.47;;;13.50;73.08
71107;BME280;58763;47.982;11.516;2023-05-01T13:12:16;93919.09;;;13.75;70.77
71107;BME280;58763;47.982;11.516;2023-05-01T13:14:42;93924.75;;;13.87;70.82
71107;BME280;58763;47.982;11.516;2023-05-01T13:17:11;93922.66;;;14.15;69.98
71107;BME280;58763;47.982;11.516;2023-05-01T13:19:37;93927.97;;;14.20;68.08
71107;BME280;58763;47.982;11.516;2023-05-01T13:22:06;93925.59;;;13.96;67.28
71107;BME280;58763;47.982;11.516;2023-05-01T13:24:42;93920.84;;;14.02;68.76
71107;BME280;58763;47.982;11.516;2023-05-01T13:27:11;93925.34;;;14.06;67.81
71107;BME280;58763;47.982;11.516;2023-05-01T13:29:40;93921.47;;;13.99;66.72